sensor_id;sensor_type;location;lat;lon;timestamp;pressure;altitude;pressure_sealevel;temperature;humidity
53758;BME280;39674;59.860;30.672;2022-09-09T00:02:37;102400.34;;;2.43;100.00
53758;BME280;39674;59.860;30.672;2022-09-09T00:05:19;102438.81;;;2.64;99.87
53758;BME280;39674;59.860;30.672;2022-09-09T00:08:11;102335.75;;;2.14;100.00
53758;BME280;39674;59.860;30.672;2022-09-09T00:10:54;102436.28;;;2.73;100.00
53758;BME280;39674;59.860;30.672;2022-09-09T00:13:38;102337.50;;;2.17;100.00
53758;BME280;39674;59.860;30.672;2022-09-09T00:16:27;102422.31;;;2.68;100.00
53758;BME280;39674;59.860;30.672;2022-09-09T00:19:11;102392.59;;;2.51;100.00
53758;BME280;39674;59.860;30.672;2022-09-09T00:21:47;102326.19;;;2.13;100.00
53758;BME280;39674;59.860;30.672;2022-09-09T00:24:34;102432.84;;;2.78;100.00
53758;BME280;39674;59.860;30.672;2022-09-09T00:27:30;102478.31;;;3.04;100.00
53758;BME280;39674;59.860;30.672;2022-09-09T00:30:16;102485.34;;;3.15;100.00
53758;BME280;39674;59.860;30.672;2022-09-09T00:32:54;102441.63;;;2.89;100.00
53758;BME280;39674;59.860;30.672;2022-09-09T00:35:33;102362.94;;;2.39;100.00
53758;BME280;39674;59.860;30.672;2022-09-09T00:38:16;102432.06;;;2.91;100.00
53758;BME280;39674;59.860;30.672;2022-09-09T00:40:49;102490.69;;;3.33;100.00
53758;BME280;39674;59.860;30.672;2022-09-09T00:43:26;102493.31;;;3.33;100.00
53758;BME280;39674;59.860;30.672;2022-09-09T00:49:22;102441.75;;;3.03;100.00
53758;BME280;39674;59.860;30.672;2022-09-09T00:52:18;102478.47;;;3.26;100.00
53758;BME280;39674;59.860;30.672;2022-09-09T00:55:00;102385.81;;;2.71;100.00
53758;BME280;39674;59.860;30.672;2022-09-09T00:57:39;102359.63;;;2.62;100.00
53758;BME280;39674;59.860;30.672;2022-09-09T01:00:24;102362.34;;;2.71;100.00
53758;BME280;39674;59.860;30.672;2022-09-09T01:03:17;102483.84;;;3.48;100.00
53758;BME280;39674;59.860;30.672;2022-09-09T01:06:00;102364.94;;;2.71;100.00
53758;BME280;39674;59.860;30.672;2022-09-09T01:08:46;102439.31;;;3.26;100.00
53758;BME280;39674;59.860;30.672;2022-09-09T01:11:32;102331.84;;;2.64;100.00
53758;BME280;39674;59.860;30.672;2022-09-09T01:14:16;102494.34;;;3.59;100.00
53758;BME280;39674;59.860;30.672;2022-09-09T01:17:00;102354.50;;;2.73;100.00
53758;BME280;39674;59.860;30.672;2022-09-09T01:19:44;102484.75;;;3.55;100.00
53758;BME280;39674;59.860;30.672;2022-09-09T01:22:28;102409.56;;;3.10;100.00
53758;BME280;39674;59.860;30.672;2022-09-09T01:25:29;102445.47;;;3.37;100.00
53758;BME280;39674;59.860;30.672;2022-09-09T01:28:16;102461.19;;;3.44;100.00
53758;BME280;39674;59.860;30.672;2022-09-09T01:31:18;102433.22;;;3.33;100.00
53758;BME280;39674;59.860;30.672;2022-09-09T01:34:14;102451.50;;;3.33;100.00
53758;BME280;39674;59.860;30.672;2022-09-09T01:36:49;102335.34;;;2.69;100.00
53758;BME280;39674;59.860;30.672;2022-09-09T01:39:24;102365.16;;;2.99;100.00
53758;BME280;39674;59.860;30.672;2022-09-09T01:42:07;102345.09;;;2.92;100.00
53758;BME280;39674;59.860;30.672;2022-09-09T01:44:42;102421.06;;;3.35;100.00
53758;BME280;39674;59.860;30.672;2022-09-09T01:47:21;102449.91;;;3.51;100.00
53758;BME280;39674;59.860;30.672;2022-09-09T01:50:19;102357.28;;;2.95;100.00
53758;BME280;39674;59.860;30.672;2022-09-09T01:52:59;102495.31;;;3.73;100.00
53758;BME280;39674;59.860;30.672;2022-09-09T01:55:40;102382.69;;;3.19;100.00
53758;BME280;39674;59.860;30.672;2022-09-09T01:58:32;102433.38;;;3.55;100.00
53758;BME280;39674;59.860;30.672;2022-09-09T02:01:15;102445.59;;;3.62;100.00
53758;BME280;39674;59.860;30.672;2022-09-09T02:03:57;102390.53;;;3.27;100.00
53758;BME280;39674;59.860;30.672;2022-09-09T02:06:30;102499.84;;;4.07;100.00
53758;BME280;39674;59.860;30.672;2022-09-09T02:09:13;102411.59;;;3.55;100.00
53758;BME280;39674;59.860;30.672;2022-09-09T02:11:59;102368.78;;;3.29;100.00
53758;BME280;39674;59.860;30.672;2022-09-09T02:14:52;102427.28;;;3.58;100.00
53758;BME280;39674;59.860;30.672;2022-09-09T02:17:31;102443.91;;;3.71;100.00
53758;BME280;39674;59.860;30.672;2022-09-09T02:20:18;102486.72;;;3.94;100.00
53758;BME280;39674;59.860;30.672;2022-09-09T02:23:15;102441.28;;;3.64;100.00
53758;BME280;39674;59.860;30.672;2022-09-09T02:25:52;102350.41;;;3.11;100.00
53758;BME280;39674;59.860;30.672;2022-09-09T02:28:29;102358.28;;;3.15;100.00
53758;BME280;39674;59.860;30.672;2022-09-09T02:31:08;102354.81;;;3.21;100.00
53758;BME280;39674;59.860;30.672;2022-09-09T02:34:07;102384.50;;;3.35;100.00
53758;BME280;39674;59.860;30.672;2022-09-09T02:36:46;102353.97;;;3.19;100.00
53758;BME280;39674;59.860;30.672;2022-09-09T02:39:19;102442.16;;;3.73;100.00
53758;BME280;39674;59.860;30.672;2022-09-09T02:42:01;102437.81;;;3.76;100.00
53758;BME280;39674;59.860;30.672;2022-09-09T02:44:33;102431.69;;;3.73;100.00
53758;BME280;39674;59.860;30.672;2022-09-09T02:47:10;102492.06;;;4.21;100.00
53758;BME280;39674;59.860;30.672;2022-09-09T02:50:03;102419.53;;;3.75;100.00
53758;BME280;39674;59.860;30.672;2022-09-09T02:52:50;102494.66;;;4.16;100.00
53758;BME280;39674;59.860;30.672;2022-09-09T02:55:39;102372.34;;;3.47;100.00
53758;BME280;39674;59.860;30.672;2022-09-09T02:58:14;102359.28;;;3.39;100.00
53758;BME280;39674;59.860;30.672;2022-09-09T03:00:59;102362.78;;;3.41;100.00
53758;BME280;39674;59.860;30.672;2022-09-09T03:03:31;102435.25;;;3.84;100.00
53758;BME280;39674;59.860;30.672;2022-09-09T03:06:19;102365.41;;;3.46;100.00
53758;BME280;39674;59.860;30.672;2022-09-09T03:09:04;102377.59;;;3.53;100.00
53758;BME280;39674;59.860;30.672;2022-09-09T03:11:50;102443.13;;;3.93;100.00
53758;BME280;39674;59.860;30.672;2022-09-09T03:14:21;102433.50;;;3.86;100.00
53758;BME280;39674;59.860;30.672;2022-09-09T03:16:57;102354.94;;;3.43;100.00
53758;BME280;39674;59.860;30.672;2022-09-09T03:19:38;102433.53;;;3.92;100.00
53758;BME280;39674;59.860;30.672;2022-09-09T03:22:15;102431.81;;;3.91;100.00
53758;BME280;39674;59.860;30.672;2022-09-09T03:24:53;102437.03;;;3.94;100.00
53758;BME280;39674;59.860;30.672;2022-09-09T03:27:24;102355.78;;;3.43;100.00
53758;BME280;39674;59.860;30.672;2022-09-09T03:29:56;102427.41;;;3.85;100.00
53758;BME280;39674;59.860;30.672;2022-09-09T03:32:37;102345.31;;;3.34;100.00
53758;BME280;39674;59.860;30.672;2022-09-09T03:35:11;102348.81;;;3.36;100.00
53758;BME280;39674;59.860;30.672;2022-09-09T03:37:49;102368.91;;;3.54;100.00
53758;BME280;39674;59.860;30.672;2022-09-09T03:40:23;102386.41;;;3.64;100.00
53758;BME280;39674;59.860;30.672;2022-09-09T03:43:00;102351.47;;;3.53;100.00
53758;BME280;39674;59.860;30.672;2022-09-09T03:45:30;102368.94;;;3.60;100.00
53758;BME280;39674;59.860;30.672;2022-09-09T03:48:46;102435.31;;;4.06;100.00
53758;BME280;39674;59.860;30.672;2022-09-09T03:51:09;102463.28;;;4.25;100.00
53758;BME280;39674;59.860;30.672;2022-09-09T03:53:43;102444.97;;;4.17;100.00
53758;BME280;39674;59.860;30.672;2022-09-09T03:56:17;102438.84;;;4.14;100.00
53758;BME280;39674;59.860;30.672;2022-09-09T03:58:54;102426.59;;;4.00;100.00
53758;BME280;39674;59.860;30.672;2022-09-09T04:01:25;102440.59;;;4.18;100.00
53758;BME280;39674;59.860;30.672;2022-09-09T04:03:54;102430.13;;;4.15;100.00
53758;BME280;39674;59.860;30.672;2022-09-09T04:06:25;102501.75;;;4.54;100.00
53758;BME280;39674;59.860;30.672;2022-09-09T04:08:59;102491.28;;;4.54;100.00
53758;BME280;39674;59.860;30.672;2022-09-09T04:11:35;102382.97;;;3.87;100.00
53758;BME280;39674;59.860;30.672;2022-09-09T04:14:54;102377.75;;;3.87;100.00
53758;BME280;39674;59.860;30.672;2022-09-09T04:17:11;102431.91;;;4.25;100.00
53758;BME280;39674;59.860;30.672;2022-09-09T04:19:43;102487.78;;;4.58;100.00
53758;BME280;39674;59.860;30.672;2022-09-09T04:22:14;102407.44;;;4.09;100.00
53758;BME280;39674;59.860;30.672;2022-09-09T04:24:52;102369.03;;;3.85;100.00
53758;BME280;39674;59.860;30.672;2022-09-09T04:27:28;102441.50;;;4.31;100.00
53758;BME280;39674;59.860;30.672;2022-09-09T04:30:10;102447.63;;;4.44;100.00
53758;BME280;39674;59.860;30.672;2022-09-09T04:34:01;102372.56;;;3.99;100.00
53758;BME280;39674;59.860;30.672;2022-09-09T04:36:15;102440.66;;;4.46;100.00
53758;BME280;39674;59.860;30.672;2022-09-09T04:39:09;102445.94;;;4.55;100.00
53758;BME280;39674;59.860;30.672;2022-09-09T04:42:36;102357.78;;;4.15;100.00
53758;BME280;39674;59.860;30.672;2022-09-09T04:45:32;102404.06;;;4.49;100.00
53758;BME280;39674;59.860;30.672;2022-09-09T04:48:12;102365.66;;;4.23;100.00
53758;BME280;39674;59.860;30.672;2022-09-09T04:51:09;102423.25;;;4.60;100.00
53758;BME280;39674;59.860;30.672;2022-09-09T04:55:52;102426.75;;;4.69;100.00
53758;BME280;39674;59.860;30.672;2022-09-09T04:57:51;102342.97;;;4.25;100.00
53758;BME280;39674;59.860;30.672;2022-09-09T05:00:52;102384.88;;;4.52;100.00
53758;BME280;39674;59.860;30.672;2022-09-09T05:04:04;102447.69;;;5.00;100.00
53758;BME280;39674;59.860;30.672;2022-09-09T05:07:22;102507.91;;;5.41;100.00
53758;BME280;39674;59.860;30.672;2022-09-09T05:10:23;102462.50;;;5.10;100.00
53758;BME280;39674;59.860;30.672;2022-09-09T05:20:45;102385.72;;;4.75;100.00
53758;BME280;39674;59.860;30.672;2022-09-09T05:27:24;102387.47;;;4.90;100.00
53758;BME280;39674;59.860;30.672;2022-09-09T05:31:01;102524.47;;;5.74;100.00
53758;BME280;39674;59.860;30.672;2022-09-09T05:48:06;102390.59;;;6.10;100.00
53758;BME280;39674;59.860;30.672;2022-09-09T05:51:45;102509.47;;;7.47;100.00
53758;BME280;39674;59.860;30.672;2022-09-09T05:58:24;102366.34;;;6.92;99.84
53758;BME280;39674;59.860;30.672;2022-09-09T06:01:47;102487.19;;;7.84;99.93
53758;BME280;39674;59.860;30.672;2022-09-09T06:12:39;102391.00;;;8.27;95.75
53758;BME280;39674;59.860;30.672;2022-09-09T06:16:49;102385.25;;;8.59;96.20
53758;BME280;39674;59.860;30.672;2022-09-09T06:23:12;102506.38;;;10.14;91.75
53758;BME280;39674;59.860;30.672;2022-09-09T06:27:37;102497.63;;;10.53;89.27
53758;BME280;39674;59.860;30.672;2022-09-09T06:43:28;102394.03;;;11.09;83.71
53758;BME280;39674;59.860;30.672;2022-09-09T06:47:18;102403.75;;;11.08;82.01
53758;BME280;39674;59.860;30.672;2022-09-09T06:53:27;102428.75;;;11.63;77.00
53758;BME280;39674;59.860;30.672;2022-09-09T06:56:33;102459.97;;;11.81;79.30
53758;BME280;39674;59.860;30.672;2022-09-09T06:59:36;102503.09;;;11.85;78.22
53758;BME280;39674;59.860;30.672;2022-09-09T07:06:41;102385.19;;;10.77;80.00
53758;BME280;39674;59.860;30.672;2022-09-09T07:09:55;102443.50;;;11.05;79.57
53758;BME280;39674;59.860;30.672;2022-09-09T07:13:05;102511.06;;;11.52;81.81
53758;BME280;39674;59.860;30.672;2022-09-09T07:27:22;102407.75;;;10.54;80.37
53758;BME280;39674;59.860;30.672;2022-09-09T07:30:52;102475.44;;;10.96;77.91
53758;BME280;39674;59.860;30.672;2022-09-09T07:35:22;102410.47;;;10.51;77.42
53758;BME280;39674;59.860;30.672;2022-09-09T08:37:13;102426.94;;;10.97;72.40
53758;BME280;39674;59.860;30.672;2022-09-09T08:39:50;102495.91;;;11.24;72.37
53758;BME280;39674;59.860;30.672;2022-09-09T08:42:38;102457.88;;;10.95;73.82
53758;BME280;39674;59.860;30.672;2022-09-09T08:45:27;102550.41;;;11.31;75.21
53758;BME280;39674;59.860;30.672;2022-09-09T08:48:44;102489.66;;;10.92;73.56
53758;BME280;39674;59.860;30.672;2022-09-09T08:51:47;102521.06;;;11.04;74.53
53758;BME280;39674;59.860;30.672;2022-09-09T08:54:30;102488.94;;;10.85;74.19
53758;BME280;39674;59.860;30.672;2022-09-09T08:57:23;102475.19;;;10.71;74.37
53758;BME280;39674;59.860;30.672;2022-09-09T09:00:37;102491.41;;;10.93;75.27
53758;BME280;39674;59.860;30.672;2022-09-09T09:03:24;102495.72;;;10.96;73.00
53758;BME280;39674;59.860;30.672;2022-09-09T09:06:39;102475.75;;;10.84;73.30
53758;BME280;39674;59.860;30.672;2022-09-09T09:09:21;102498.97;;;11.08;72.47
53758;BME280;39674;59.860;30.672;2022-09-09T09:16:15;102450.44;;;11.10;73.09
53758;BME280;39674;59.860;30.672;2022-09-09T09:19:04;102473.00;;;11.23;68.97
53758;BME280;39674;59.860;30.672;2022-09-09T09:22:16;102495.34;;;11.46;71.32
53758;BME280;39674;59.860;30.672;2022-09-09T09:25:08;102521.47;;;11.58;70.28
53758;BME280;39674;59.860;30.672;2022-09-09T09:27:54;102413.66;;;11.00;71.43
53758;BME280;39674;59.860;30.672;2022-09-09T09:30:35;102458.75;;;11.29;72.63
53758;BME280;39674;59.860;30.672;2022-09-09T09:33:49;102486.75;;;11.37;68.16
53758;BME280;39674;59.860;30.672;2022-09-09T09:36:52;102455.56;;;11.16;71.42
53758;BME280;39674;59.860;30.672;2022-09-09T09:39:38;102468.66;;;11.22;72.25
53758;BME280;39674;59.860;30.672;2022-09-09T09:42:37;102426.31;;;10.89;71.92
53758;BME280;39674;59.860;30.672;2022-09-09T09:45:35;102410.47;;;10.87;71.33
53758;BME280;39674;59.860;30.672;2022-09-09T09:48:20;102447.03;;;11.04;71.47
53758;BME280;39674;59.860;30.672;2022-09-09T09:51:46;102453.69;;;11.21;72.58
53758;BME280;39674;59.860;30.672;2022-09-09T09:54:44;102453.59;;;11.24;71.55
53758;BME280;39674;59.860;30.672;2022-09-09T09:57:25;102401.72;;;10.85;68.91
53758;BME280;39674;59.860;30.672;2022-09-09T10:00:12;102460.94;;;11.13;70.35
53758;BME280;39674;59.860;30.672;2022-09-09T10:03:21;102424.41;;;10.94;69.57
53758;BME280;39674;59.860;30.672;2022-09-09T10:07:13;102474.41;;;11.36;68.18
53758;BME280;39674;59.860;30.672;2022-09-09T10:10:03;102468.31;;;11.34;65.56
53758;BME280;39674;59.860;30.672;2022-09-09T10:12:51;102432.53;;;11.21;67.28
53758;BME280;39674;59.860;30.672;2022-09-09T10:15:47;102404.56;;;11.11;67.91
53758;BME280;39674;59.860;30.672;2022-09-09T10:18:47;102386.78;;;11.16;69.81
53758;BME280;39674;59.860;30.672;2022-09-09T10:27:45;102401.56;;;11.56;71.88
53758;BME280;39674;59.860;30.672;2022-09-09T10:30:34;102405.03;;;11.90;66.97
53758;BME280;39674;59.860;30.672;2022-09-09T10:33:40;102470.25;;;12.52;64.36
53758;BME280;39674;59.860;30.672;2022-09-09T10:36:30;102392.66;;;12.20;66.80
53758;BME280;39674;59.860;30.672;2022-09-09T10:39:10;102394.09;;;12.30;66.41
53758;BME280;39674;59.860;30.672;2022-09-09T10:42:16;102399.91;;;12.42;65.76
53758;BME280;39674;59.860;30.672;2022-09-09T10:45:11;102489.34;;;12.90;64.41
53758;BME280;39674;59.860;30.672;2022-09-09T10:51:31;102384.00;;;12.42;67.05
53758;BME280;39674;59.860;30.672;2022-09-09T10:54:28;102473.31;;;12.93;65.09
53758;BME280;39674;59.860;30.672;2022-09-09T10:59:48;102464.56;;;12.91;65.77
53758;BME280;39674;59.860;30.672;2022-09-09T11:00:50;102384.13;;;12.39;62.91
53758;BME280;39674;59.860;30.672;2022-09-09T11:04:05;102465.28;;;12.96;65.42
53758;BME280;39674;59.860;30.672;2022-09-09T11:06:49;102506.47;;;13.33;66.36
53758;BME280;39674;59.860;30.672;2022-09-09T11:09:53;102443.75;;;12.79;63.06
53758;BME280;39674;59.860;30.672;2022-09-09T11:12:48;102458.72;;;12.81;63.91
53758;BME280;39674;59.860;30.672;2022-09-09T11:15:49;102462.22;;;12.82;64.05
53758;BME280;39674;59.860;30.672;2022-09-09T11:18:36;102391.75;;;12.48;62.04
53758;BME280;39674;59.860;30.672;2022-09-09T11:21:19;102402.81;;;12.61;60.65
53758;BME280;39674;59.860;30.672;2022-09-09T11:24:09;102447.06;;;12.86;64.84
53758;BME280;39674;59.860;30.672;2022-09-09T11:26:52;102444.97;;;12.95;64.28
53758;BME280;39674;59.860;30.672;2022-09-09T11:30:02;102385.94;;;12.63;62.60
53758;BME280;39674;59.860;30.672;2022-09-09T11:33:47;102410.44;;;12.97;62.89
53758;BME280;39674;59.860;30.672;2022-09-09T11:36:59;102502.44;;;13.74;61.43
53758;BME280;39674;59.860;30.672;2022-09-09T11:40:00;102447.06;;;13.63;59.29
53758;BME280;39674;59.860;30.672;2022-09-09T11:42:43;102376.56;;;13.30;59.23
53758;BME280;39674;59.860;30.672;2022-09-09T11:48:31;102362.56;;;13.25;61.42
53758;BME280;39674;59.860;30.672;2022-09-09T11:51:27;102489.53;;;14.12;62.54
53758;BME280;39674;59.860;30.672;2022-09-09T11:54:29;102423.88;;;13.92;60.10
53758;BME280;39674;59.860;30.672;2022-09-09T12:01:02;102478.84;;;14.36;60.21
53758;BME280;39674;59.860;30.672;2022-09-09T12:06:18;102475.63;;;14.05;56.18
53758;BME280;39674;59.860;30.672;2022-09-09T12:11:40;102440.22;;;13.81;60.49
53758;BME280;39674;59.860;30.672;2022-09-09T12:14:58;102349.91;;;13.33;58.31
53758;BME280;39674;59.860;30.672;2022-09-09T12:17:48;102404.63;;;13.85;60.37
53758;BME280;39674;59.860;30.672;2022-09-09T12:20:57;102390.69;;;13.80;58.67
53758;BME280;39674;59.860;30.672;2022-09-09T12:23:54;102390.06;;;13.73;57.08
53758;BME280;39674;59.860;30.672;2022-09-09T12:27:06;102320.72;;;13.10;55.79
53758;BME280;39674;59.860;30.672;2022-09-09T12:30:14;102408.41;;;13.30;57.22
53758;BME280;39674;59.860;30.672;2022-09-09T12:33:06;102325.38;;;12.78;56.80
53758;BME280;39674;59.860;30.672;2022-09-09T12:35:56;102453.81;;;13.48;57.51
53758;BME280;39674;59.860;30.672;2022-09-09T12:38:38;102409.56;;;13.22;56.98
53758;BME280;39674;59.860;30.672;2022-09-09T12:41:23;102382.34;;;13.16;58.93
53758;BME280;39674;59.860;30.672;2022-09-09T12:47:10;102451.84;;;13.53;60.13
53758;BME280;39674;59.860;30.672;2022-09-09T12:49:57;102391.72;;;13.02;61.07
53758;BME280;39674;59.860;30.672;2022-09-09T12:52:43;102358.53;;;12.64;61.49
53758;BME280;39674;59.860;30.672;2022-09-09T12:55:18;102325.63;;;12.43;63.22
53758;BME280;39674;59.860;30.672;2022-09-09T12:58:02;102378.84;;;12.64;61.36
53758;BME280;39674;59.860;30.672;2022-09-09T13:00:49;102320.38;;;12.15;60.94
53758;BME280;39674;59.860;30.672;2022-09-09T13:03:41;102399.81;;;12.45;62.14
53758;BME280;39674;59.860;30.672;2022-09-09T13:06:28;102395.81;;;12.31;64.42
53758;BME280;39674;59.860;30.672;2022-09-09T13:08:59;102440.78;;;12.61;65.45
53758;BME280;39674;59.860;30.672;2022-09-09T13:11:48;102408.75;;;12.41;62.18
53758;BME280;39674;59.860;30.672;2022-09-09T13:14:56;102367.78;;;12.24;63.85
53758;BME280;39674;59.860;30.672;2022-09-09T13:18:12;102395.56;;;12.39;64.33
53758;BME280;39674;59.860;30.672;2022-09-09T13:21:00;102404.56;;;12.33;62.96
53758;BME280;39674;59.860;30.672;2022-09-09T13:23:30;102340.00;;;11.79;62.28
53758;BME280;39674;59.860;30.672;2022-09-09T13:26:22;102366.81;;;11.98;63.35
53758;BME280;39674;59.860;30.672;2022-09-09T13:29:14;102392.22;;;12.06;62.71
53758;BME280;39674;59.860;30.672;2022-09-09T13:32:06;102391.13;;;12.11;62.81
53758;BME280;39674;59.860;30.672;2022-09-09T13:34:53;102428.47;;;12.32;64.03
53758;BME280;39674;59.860;30.672;2022-09-09T13:37:42;102354.94;;;11.82;65.72
53758;BME280;39674;59.860;30.672;2022-09-09T13:40:29;102303.66;;;11.56;63.98
53758;BME280;39674;59.860;30.672;2022-09-09T13:43:20;102361.59;;;11.95;64.31
53758;BME280;39674;59.860;30.672;2022-09-09T13:45:57;102417.16;;;12.27;65.14
53758;BME280;39674;59.860;30.672;2022-09-09T13:48:35;102356.28;;;11.97;66.06
53758;BME280;39674;59.860;30.672;2022-09-09T13:51:33;102366.31;;;12.14;66.35
53758;BME280;39674;59.860;30.672;2022-09-09T13:54:22;102281.19;;;11.69;65.75
53758;BME280;39674;59.860;30.672;2022-09-09T13:56:55;102346.47;;;12.00;68.08
53758;BME280;39674;59.860;30.672;2022-09-09T14:00:18;102286.41;;;11.72;66.00
53758;BME280;39674;59.860;30.672;2022-09-09T14:03:07;102417.97;;;12.57;66.39
53758;BME280;39674;59.860;30.672;2022-09-09T14:05:40;102324.91;;;11.83;67.71
53758;BME280;39674;59.860;30.672;2022-09-09T14:08:27;102333.63;;;11.86;68.60
53758;BME280;39674;59.860;30.672;2022-09-09T14:11:30;102294.72;;;11.60;69.04
53758;BME280;39674;59.860;30.672;2022-09-09T14:14:22;102359.59;;;12.03;69.32
53758;BME280;39674;59.860;30.672;2022-09-09T14:17:10;102291.13;;;11.63;70.61
53758;BME280;39674;59.860;30.672;2022-09-09T14:19:47;102360.63;;;11.99;69.68
53758;BME280;39674;59.860;30.672;2022-09-09T14:22:22;102302.56;;;11.63;72.21
53758;BME280;39674;59.860;30.672;2022-09-09T14:25:09;102352.69;;;11.99;70.83
53758;BME280;39674;59.860;30.672;2022-09-09T14:27:58;102350.81;;;12.01;71.10
53758;BME280;39674;59.860;30.672;2022-09-09T14:30:33;102353.59;;;11.98;70.80
53758;BME280;39674;59.860;30.672;2022-09-09T14:33:18;102403.13;;;12.23;71.45
53758;BME280;39674;59.860;30.672;2022-09-09T14:36:00;102414.00;;;12.14;70.36
53758;BME280;39674;59.860;30.672;2022-09-09T14:38:38;102295.81;;;11.53;71.08
53758;BME280;39674;59.860;30.672;2022-09-09T14:41:32;102347.28;;;11.72;72.14
53758;BME280;39674;59.860;30.672;2022-09-09T14:44:21;102372.56;;;11.83;71.77
53758;BME280;39674;59.860;30.672;2022-09-09T14:47:12;102318.72;;;11.54;73.23
53758;BME280;39674;59.860;30.672;2022-09-09T14:49:53;102342.91;;;11.71;73.67
53758;BME280;39674;59.860;30.672;2022-09-09T14:52:32;102325.38;;;11.67;74.76
53758;BME280;39674;59.860;30.672;2022-09-09T14:55:10;102341.81;;;11.79;75.27
53758;BME280;39674;59.860;30.672;2022-09-09T14:58:18;102266.34;;;11.35;74.90
53758;BME280;39674;59.860;30.672;2022-09-09T15:00:55;102347.94;;;11.81;76.26
53758;BME280;39674;59.860;30.672;2022-09-09T15:03:34;102315.97;;;11.57;72.30
53758;BME280;39674;59.860;30.672;2022-09-09T15:06:14;102391.00;;;12.16;73.20
53758;BME280;39674;59.860;30.672;2022-09-09T15:09:06;102321.31;;;11.55;75.30
53758;BME280;39674;59.860;30.672;2022-09-09T15:11:45;102313.44;;;11.54;75.79
53758;BME280;39674;59.860;30.672;2022-09-09T15:14:36;102307.44;;;11.47;74.07
53758;BME280;39674;59.860;30.672;2022-09-09T15:17:14;102335.09;;;11.67;72.15
53758;BME280;39674;59.860;30.672;2022-09-09T15:20:07;102260.63;;;11.21;74.19
53758;BME280;39674;59.860;30.672;2022-09-09T15:22:49;102339.59;;;11.63;76.63
53758;BME280;39674;59.860;30.672;2022-09-09T15:25:34;102253.81;;;11.12;75.93
53758;BME280;39674;59.860;30.672;2022-09-09T15:28:25;102279.13;;;11.21;78.23
53758;BME280;39674;59.860;30.672;2022-09-09T15:31:08;102250.34;;;11.10;79.27
53758;BME280;39674;59.860;30.672;2022-09-09T15:33:59;102328.34;;;11.56;77.03
53758;BME280;39674;59.860;30.672;2022-09-09T15:36:31;102277.28;;;11.23;77.73
53758;BME280;39674;59.860;30.672;2022-09-09T15:39:03;102371.00;;;11.76;76.80
53758;BME280;39674;59.860;30.672;2022-09-09T15:41:49;102370.72;;;11.85;77.08
53758;BME280;39674;59.860;30.672;2022-09-09T15:44:38;102320.34;;;11.58;77.46
53758;BME280;39674;59.860;30.672;2022-09-09T15:47:32;102322.94;;;11.60;78.53
53758;BME280;39674;59.860;30.672;2022-09-09T15:50:13;102252.16;;;11.08;80.69
53758;BME280;39674;59.860;30.672;2022-09-09T15:52:52;102325.91;;;11.49;80.17
53758;BME280;39674;59.860;30.672;2022-09-09T15:55:34;102363.13;;;11.74;82.57
53758;BME280;39674;59.860;30.672;2022-09-09T15:58:13;102293.84;;;11.30;78.26
53758;BME280;39674;59.860;30.672;2022-09-09T16:00:53;102327.75;;;11.47;79.96
53758;BME280;39674;59.860;30.672;2022-09-09T16:03:46;102328.72;;;11.44;77.21
53758;BME280;39674;59.860;30.672;2022-09-09T16:06:23;102321.88;;;11.37;78.35
53758;BME280;39674;59.860;30.672;2022-09-09T16:09:04;102289.00;;;11.14;75.83
53758;BME280;39674;59.860;30.672;2022-09-09T16:11:43;102316.06;;;11.24;78.41
53758;BME280;39674;59.860;30.672;2022-09-09T16:14:42;102331.56;;;11.36;80.00
53758;BME280;39674;59.860;30.672;2022-09-09T16:17:27;102319.41;;;11.29;81.40
53758;BME280;39674;59.860;30.672;2022-09-09T16:23:23;102318.75;;;11.22;80.73
53758;BME280;39674;59.860;30.672;2022-09-09T16:25:59;102318.09;;;11.14;81.05
53758;BME280;39674;59.860;30.672;2022-09-09T16:28:42;102321.13;;;11.00;80.93
53758;BME280;39674;59.860;30.672;2022-09-09T16:31:18;102321.38;;;10.91;81.81
53758;BME280;39674;59.860;30.672;2022-09-09T16:33:55;102322.38;;;10.87;82.79
53758;BME280;39674;59.860;30.672;2022-09-09T16:37:33;102331.22;;;10.86;82.52
53758;BME280;39674;59.860;30.672;2022-09-09T16:39:33;102240.13;;;10.32;82.46
53758;BME280;39674;59.860;30.672;2022-09-09T16:42:25;102308.97;;;10.60;83.54
53758;BME280;39674;59.860;30.672;2022-09-09T16:45:18;102245.59;;;10.24;83.25
53758;BME280;39674;59.860;30.672;2022-09-09T16:47:56;102284.28;;;10.26;85.50
53758;BME280;39674;59.860;30.672;2022-09-09T16:51:05;102241.97;;;9.92;84.35
53758;BME280;39674;59.860;30.672;2022-09-09T16:54:03;102320.03;;;10.41;83.88
53758;BME280;39674;59.860;30.672;2022-09-09T16:56:42;102325.38;;;10.38;83.92
53758;BME280;39674;59.860;30.672;2022-09-09T16:59:30;102234.59;;;9.70;84.10
53758;BME280;39674;59.860;30.672;2022-09-09T17:02:26;102322.34;;;10.18;83.99
53758;BME280;39674;59.860;30.672;2022-09-09T17:05:06;102318.31;;;10.01;83.88
53758;BME280;39674;59.860;30.672;2022-09-09T17:07:40;102282.84;;;9.75;83.10
53758;BME280;39674;59.860;30.672;2022-09-09T17:10:43;102317.59;;;9.93;83.49
53758;BME280;39674;59.860;30.672;2022-09-09T17:13:35;102215.41;;;9.23;83.66
53758;BME280;39674;59.860;30.672;2022-09-09T17:18:54;102235.66;;;9.21;84.08
53758;BME280;39674;59.860;30.672;2022-09-09T17:21:35;102268.03;;;9.29;83.86
53758;BME280;39674;59.860;30.672;2022-09-09T17:24:27;102352.34;;;9.74;84.29
53758;BME280;39674;59.860;30.672;2022-09-09T17:27:30;102316.91;;;9.45;84.33
53758;BME280;39674;59.860;30.672;2022-09-09T17:30:29;102384.91;;;9.73;85.20